sensor_id;sensor_type;location;lat;lon;timestamp;temperature;humidity
15819;DHT22;8010;53.986;12.106;2023-08-07T00:00:23;14.20;99.90
15819;DHT22;8010;53.986;12.106;2023-08-07T00:02:48;14.10;99.90
15819;DHT22;8010;53.986;12.106;2023-08-07T00:05:14;14.10;99.90
15819;DHT22;8010;53.986;12.106;2023-08-07T00:07:40;14.10;99.90
15819;DHT22;8010;53.986;12.106;2023-08-07T00:10:06;14.10;99.90
15819;DHT22;8010;53.986;12.106;2023-08-07T00:12:31;14.10;99.90
15819;DHT22;8010;53.986;12.106;2023-08-07T00:14:57;14.10;99.90
15819;DHT22;8010;53.986;12.106;2023-08-07T00:17:22;14.10;99.90
15819;DHT22;8010;53.986;12.106;2023-08-07T00:19:48;14.10;99.90
15819;DHT22;8010;53.986;12.106;2023-08-07T00:22:13;14.20;99.90
15819;DHT22;8010;53.986;12.106;2023-08-07T00:24:39;14.20;99.90
15819;DHT22;8010;53.986;12.106;2023-08-07T00:27:06;14.30;99.90
15819;DHT22;8010;53.986;12.106;2023-08-07T00:29:32;14.30;99.90
15819;DHT22;8010;53.986;12.106;2023-08-07T00:31:58;14.30;99.90
15819;DHT22;8010;53.986;12.106;2023-08-07T00:34:23;14.30;99.90
15819;DHT22;8010;53.986;12.106;2023-08-07T00:36:49;14.30;99.90
15819;DHT22;8010;53.986;12.106;2023-08-07T00:39:15;14.30;99.90
15819;DHT22;8010;53.986;12.106;2023-08-07T00:41:40;14.40;99.90
15819;DHT22;8010;53.986;12.106;2023-08-07T00:44:06;14.40;99.90
15819;DHT22;8010;53.986;12.106;2023-08-07T00:46:32;14.40;99.90
15819;DHT22;8010;53.986;12.106;2023-08-07T00:48:57;14.40;99.90
15819;DHT22;8010;53.986;12.106;2023-08-07T00:51:23;14.40;99.90
15819;DHT22;8010;53.986;12.106;2023-08-07T00:53:49;14.50;99.90
15819;DHT22;8010;53.986;12.106;2023-08-07T00:56:15;14.50;99.90
15819;DHT22;8010;53.986;12.106;2023-08-07T00:58:41;14.40;99.90
15819;DHT22;8010;53.986;12.106;2023-08-07T01:01:07;14.40;99.90
15819;DHT22;8010;53.986;12.106;2023-08-07T01:03:32;14.40;99.90
15819;DHT22;8010;53.986;12.106;2023-08-07T01:05:58;14.30;99.90
15819;DHT22;8010;53.986;12.106;2023-08-07T01:08:24;14.40;99.90
15819;DHT22;8010;53.986;12.106;2023-08-07T01:13:40;14.30;99.90
15819;DHT22;8010;53.986;12.106;2023-08-07T01:16:18;14.40;99.90
15819;DHT22;8010;53.986;12.106;2023-08-07T01:18:46;14.40;99.90
15819;DHT22;8010;53.986;12.106;2023-08-07T01:21:19;14.40;99.90
15819;DHT22;8010;53.986;12.106;2023-08-07T01:23:48;14.40;99.90
15819;DHT22;8010;53.986;12.106;2023-08-07T01:26:15;14.40;99.90
15819;DHT22;8010;53.986;12.106;2023-08-07T01:28:48;14.40;99.90
15819;DHT22;8010;53.986;12.106;2023-08-07T01:31:16;14.40;99.90
15819;DHT22;8010;53.986;12.106;2023-08-07T01:33:54;14.30;99.90
15819;DHT22;8010;53.986;12.106;2023-08-07T01:36:24;14.30;99.90
15819;DHT22;8010;53.986;12.106;2023-08-07T01:38:50;14.30;99.90
15819;DHT22;8010;53.986;12.106;2023-08-07T01:41:18;14.30;99.90
15819;DHT22;8010;53.986;12.106;2023-08-07T01:43:44;14.30;99.90
15819;DHT22;8010;53.986;12.106;2023-08-07T01:46:10;14.30;99.90
15819;DHT22;8010;53.986;12.106;2023-08-07T01:48:36;14.30;99.90
15819;DHT22;8010;53.986;12.106;2023-08-07T01:51:02;14.30;99.90
15819;DHT22;8010;53.986;12.106;2023-08-07T01:53:27;14.30;99.90
15819;DHT22;8010;53.986;12.106;2023-08-07T01:55:53;14.30;99.90
15819;DHT22;8010;53.986;12.106;2023-08-07T01:58:18;14.30;99.90
15819;DHT22;8010;53.986;12.106;2023-08-07T02:00:44;14.40;99.90
15819;DHT22;8010;53.986;12.106;2023-08-07T02:03:09;14.30;99.90
15819;DHT22;8010;53.986;12.106;2023-08-07T02:05:35;14.30;99.90
15819;DHT22;8010;53.986;12.106;2023-08-07T02:08:00;14.30;99.90
15819;DHT22;8010;53.986;12.106;2023-08-07T02:10:26;14.40;99.90
15819;DHT22;8010;53.986;12.106;2023-08-07T02:12:51;14.30;99.90
15819;DHT22;8010;53.986;12.106;2023-08-07T02:15:17;14.30;99.90
15819;DHT22;8010;53.986;12.106;2023-08-07T02:17:42;14.30;99.90
15819;DHT22;8010;53.986;12.106;2023-08-07T02:20:08;14.40;99.90
15819;DHT22;8010;53.986;12.106;2023-08-07T02:22:34;14.40;99.90
15819;DHT22;8010;53.986;12.106;2023-08-07T02:25:00;14.50;99.90
15819;DHT22;8010;53.986;12.106;2023-08-07T02:27:25;14.40;99.90
15819;DHT22;8010;53.986;12.106;2023-08-07T02:29:51;14.50;99.90
15819;DHT22;8010;53.986;12.106;2023-08-07T02:32:16;14.50;99.90
15819;DHT22;8010;53.986;12.106;2023-08-07T02:34:42;14.50;99.90
15819;DHT22;8010;53.986;12.106;2023-08-07T02:37:08;14.50;99.90
15819;DHT22;8010;53.986;12.106;2023-08-07T02:39:34;14.50;99.90
15819;DHT22;8010;53.986;12.106;2023-08-07T02:41:59;14.60;99.90
15819;DHT22;8010;53.986;12.106;2023-08-07T02:44:25;14.60;99.90
15819;DHT22;8010;53.986;12.106;2023-08-07T02:46:50;14.60;99.90
15819;DHT22;8010;53.986;12.106;2023-08-07T02:49:16;14.60;99.90
15819;DHT22;8010;53.986;12.106;2023-08-07T02:51:41;14.60;99.90
15819;DHT22;8010;53.986;12.106;2023-08-07T02:54:07;14.70;99.90
15819;DHT22;8010;53.986;12.106;2023-08-07T02:56:32;14.60;99.90
15819;DHT22;8010;53.986;12.106;2023-08-07T02:58:59;14.70;99.90
15819;DHT22;8010;53.986;12.106;2023-08-07T03:01:24;14.70;99.90
15819;DHT22;8010;53.986;12.106;2023-08-07T03:03:50;14.70;99.90
15819;DHT22;8010;53.986;12.106;2023-08-07T03:06:15;14.70;99.90
15819;DHT22;8010;53.986;12.106;2023-08-07T03:08:41;14.70;99.90
15819;DHT22;8010;53.986;12.106;2023-08-07T03:11:08;14.70;99.90
15819;DHT22;8010;53.986;12.106;2023-08-07T03:13:33;14.70;99.90
15819;DHT22;8010;53.986;12.106;2023-08-07T03:16:05;14.70;99.90
15819;DHT22;8010;53.986;12.106;2023-08-07T03:18:33;14.70;99.90
15819;DHT22;8010;53.986;12.106;2023-08-07T03:20:58;14.70;99.90
15819;DHT22;8010;53.986;12.106;2023-08-07T03:23:25;14.80;99.90
15819;DHT22;8010;53.986;12.106;2023-08-07T03:25:51;14.80;99.90
15819;DHT22;8010;53.986;12.106;2023-08-07T03:28:26;14.80;99.90
15819;DHT22;8010;53.986;12.106;2023-08-07T03:30:51;14.80;99.90
15819;DHT22;8010;53.986;12.106;2023-08-07T03:33:17;14.90;99.90
15819;DHT22;8010;53.986;12.106;2023-08-07T03:35:42;14.80;99.90
15819;DHT22;8010;53.986;12.106;2023-08-07T03:38:08;14.90;99.90
15819;DHT22;8010;53.986;12.106;2023-08-07T03:40:33;14.90;99.90
15819;DHT22;8010;53.986;12.106;2023-08-07T03:42:59;14.90;99.90
15819;DHT22;8010;53.986;12.106;2023-08-07T03:45:24;14.90;99.90
15819;DHT22;8010;53.986;12.106;2023-08-07T03:47:50;15.00;99.90
15819;DHT22;8010;53.986;12.106;2023-08-07T03:50:15;15.00;99.90
15819;DHT22;8010;53.986;12.106;2023-08-07T03:52:41;15.00;99.90
15819;DHT22;8010;53.986;12.106;2023-08-07T03:55:07;14.90;99.90
15819;DHT22;8010;53.986;12.106;2023-08-07T03:57:32;14.90;99.90
15819;DHT22;8010;53.986;12.106;2023-08-07T03:59:58;15.00;99.90
15819;DHT22;8010;53.986;12.106;2023-08-07T04:02:23;15.00;99.90
15819;DHT22;8010;53.986;12.106;2023-08-07T04:04:49;15.00;99.90
15819;DHT22;8010;53.986;12.106;2023-08-07T04:07:14;15.00;99.90
15819;DHT22;8010;53.986;12.106;2023-08-07T04:09:40;15.00;99.90
15819;DHT22;8010;53.986;12.106;2023-08-07T04:12:06;15.00;99.90
15819;DHT22;8010;53.986;12.106;2023-08-07T04:14:31;15.00;99.90
15819;DHT22;8010;53.986;12.106;2023-08-07T04:16:57;15.00;99.90
15819;DHT22;8010;53.986;12.106;2023-08-07T04:19:22;15.00;99.90
15819;DHT22;8010;53.986;12.106;2023-08-07T04:21:48;15.00;99.90
15819;DHT22;8010;53.986;12.106;2023-08-07T04:24:13;15.00;99.90
15819;DHT22;8010;53.986;12.106;2023-08-07T04:26:39;15.00;99.90
15819;DHT22;8010;53.986;12.106;2023-08-07T04:29:05;15.00;99.90
15819;DHT22;8010;53.986;12.106;2023-08-07T04:31:30;15.00;99.90
15819;DHT22;8010;53.986;12.106;2023-08-07T04:33:57;15.00;99.90
15819;DHT22;8010;53.986;12.106;2023-08-07T04:36:22;15.00;99.90
15819;DHT22;8010;53.986;12.106;2023-08-07T04:38:49;15.00;99.90
15819;DHT22;8010;53.986;12.106;2023-08-07T04:41:14;15.10;99.90
15819;DHT22;8010;53.986;12.106;2023-08-07T04:43:40;15.00;99.90
15819;DHT22;8010;53.986;12.106;2023-08-07T04:46:06;15.10;99.90
15819;DHT22;8010;53.986;12.106;2023-08-07T04:48:32;15.10;99.90
15819;DHT22;8010;53.986;12.106;2023-08-07T04:50:58;15.10;99.90
15819;DHT22;8010;53.986;12.106;2023-08-07T04:53:23;15.00;99.90
15819;DHT22;8010;53.986;12.106;2023-08-07T04:55:49;15.10;99.90
15819;DHT22;8010;53.986;12.106;2023-08-07T04:58:15;15.10;99.90
15819;DHT22;8010;53.986;12.106;2023-08-07T05:00:40;15.10;99.90
15819;DHT22;8010;53.986;12.106;2023-08-07T05:03:06;15.10;99.90
15819;DHT22;8010;53.986;12.106;2023-08-07T05:05:31;15.10;99.90
15819;DHT22;8010;53.986;12.106;2023-08-07T05:07:58;15.10;99.90
15819;DHT22;8010;53.986;12.106;2023-08-07T05:10:24;15.10;99.90
15819;DHT22;8010;53.986;12.106;2023-08-07T05:12:49;15.10;99.90
15819;DHT22;8010;53.986;12.106;2023-08-07T05:15:23;15.10;99.90
15819;DHT22;8010;53.986;12.106;2023-08-07T05:17:50;15.10;99.90
15819;DHT22;8010;53.986;12.106;2023-08-07T05:20:15;15.10;99.90
15819;DHT22;8010;53.986;12.106;2023-08-07T05:22:41;15.10;99.90
15819;DHT22;8010;53.986;12.106;2023-08-07T05:25:07;15.00;99.90
15819;DHT22;8010;53.986;12.106;2023-08-07T05:27:35;15.00;99.90
15819;DHT22;8010;53.986;12.106;2023-08-07T05:30:00;15.00;99.90
15819;DHT22;8010;53.986;12.106;2023-08-07T05:32:26;15.00;99.90
15819;DHT22;8010;53.986;12.106;2023-08-07T05:34:52;15.00;99.90
15819;DHT22;8010;53.986;12.106;2023-08-07T05:37:17;15.00;99.90
15819;DHT22;8010;53.986;12.106;2023-08-07T05:39:43;15.00;99.90
15819;DHT22;8010;53.986;12.106;2023-08-07T05:42:08;14.90;99.90
15819;DHT22;8010;53.986;12.106;2023-08-07T05:44:35;14.90;99.90
15819;DHT22;8010;53.986;12.106;2023-08-07T05:47:01;14.90;99.90
15819;DHT22;8010;53.986;12.106;2023-08-07T05:49:26;14.90;99.90
15819;DHT22;8010;53.986;12.106;2023-08-07T05:51:53;14.90;99.90
15819;DHT22;8010;53.986;12.106;2023-08-07T05:54:18;14.90;99.90
15819;DHT22;8010;53.986;12.106;2023-08-07T05:56:44;14.90;99.90
15819;DHT22;8010;53.986;12.106;2023-08-07T05:59:09;14.90;99.90
15819;DHT22;8010;53.986;12.106;2023-08-07T06:01:35;14.90;99.90
15819;DHT22;8010;53.986;12.106;2023-08-07T06:04:02;14.90;99.90
15819;DHT22;8010;53.986;12.106;2023-08-07T06:06:27;14.90;99.90
15819;DHT22;8010;53.986;12.106;2023-08-07T06:08:54;14.80;99.90
15819;DHT22;8010;53.986;12.106;2023-08-07T06:11:19;14.80;99.90
15819;DHT22;8010;53.986;12.106;2023-08-07T06:13:45;14.80;99.90
15819;DHT22;8010;53.986;12.106;2023-08-07T06:16:10;14.80;99.90
15819;DHT22;8010;53.986;12.106;2023-08-07T06:18:36;14.80;99.90
15819;DHT22;8010;53.986;12.106;2023-08-07T06:21:02;14.80;99.90
15819;DHT22;8010;53.986;12.106;2023-08-07T06:23:29;14.80;99.90
15819;DHT22;8010;53.986;12.106;2023-08-07T06:25:55;14.80;99.90
15819;DHT22;8010;53.986;12.106;2023-08-07T06:28:22;14.80;99.90
15819;DHT22;8010;53.986;12.106;2023-08-07T06:30:47;14.80;99.90
15819;DHT22;8010;53.986;12.106;2023-08-07T06:33:13;14.80;99.90
15819;DHT22;8010;53.986;12.106;2023-08-07T06:35:39;14.80;99.90
15819;DHT22;8010;53.986;12.106;2023-08-07T06:38:05;14.80;99.90
15819;DHT22;8010;53.986;12.106;2023-08-07T06:40:31;14.80;99.90
15819;DHT22;8010;53.986;12.106;2023-08-07T06:42:56;14.80;99.90
15819;DHT22;8010;53.986;12.106;2023-08-07T06:45:22;14.90;99.90
15819;DHT22;8010;53.986;12.106;2023-08-07T06:47:47;15.50;99.90
15819;DHT22;8010;53.986;12.106;2023-08-07T06:50:14;15.00;99.90
15819;DHT22;8010;53.986;12.106;2023-08-07T06:52:39;15.00;99.90
15819;DHT22;8010;53.986;12.106;2023-08-07T06:55:05;15.00;99.90
15819;DHT22;8010;53.986;12.106;2023-08-07T06:57:31;15.00;99.90
15819;DHT22;8010;53.986;12.106;2023-08-07T06:59:56;15.00;99.90
15819;DHT22;8010;53.986;12.106;2023-08-07T07:02:22;15.10;99.90
15819;DHT22;8010;53.986;12.106;2023-08-07T07:04:47;15.10;99.90
15819;DHT22;8010;53.986;12.106;2023-08-07T07:07:13;15.10;99.90
15819;DHT22;8010;53.986;12.106;2023-08-07T07:09:38;15.10;99.90
15819;DHT22;8010;53.986;12.106;2023-08-07T07:12:04;15.20;99.90
15819;DHT22;8010;53.986;12.106;2023-08-07T07:14:31;15.20;99.90
15819;DHT22;8010;53.986;12.106;2023-08-07T07:16:57;15.30;99.90
15819;DHT22;8010;53.986;12.106;2023-08-07T07:19:22;15.30;99.90
15819;DHT22;8010;53.986;12.106;2023-08-07T07:21:48;16.00;99.90
15819;DHT22;8010;53.986;12.106;2023-08-07T07:24:13;15.40;99.90
15819;DHT22;8010;53.986;12.106;2023-08-07T07:26:39;15.40;99.90
15819;DHT22;8010;53.986;12.106;2023-08-07T07:29:04;15.40;99.90
15819;DHT22;8010;53.986;12.106;2023-08-07T07:31:30;15.40;99.90
15819;DHT22;8010;53.986;12.106;2023-08-07T07:33:55;15.40;99.90
15819;DHT22;8010;53.986;12.106;2023-08-07T07:36:21;15.50;99.90
15819;DHT22;8010;53.986;12.106;2023-08-07T07:38:47;15.50;99.90
15819;DHT22;8010;53.986;12.106;2023-08-07T07:41:13;15.50;99.90
15819;DHT22;8010;53.986;12.106;2023-08-07T07:43:39;15.50;99.90
15819;DHT22;8010;53.986;12.106;2023-08-07T07:46:05;15.50;99.90
15819;DHT22;8010;53.986;12.106;2023-08-07T07:48:30;15.50;99.90
15819;DHT22;8010;53.986;12.106;2023-08-07T07:51:00;15.50;99.90
15819;DHT22;8010;53.986;12.106;2023-08-07T07:53:26;15.50;99.90
15819;DHT22;8010;53.986;12.106;2023-08-07T07:55:52;15.50;99.90
15819;DHT22;8010;53.986;12.106;2023-08-07T07:58:17;15.60;99.90
15819;DHT22;8010;53.986;12.106;2023-08-07T08:00:43;15.60;99.90
15819;DHT22;8010;53.986;12.106;2023-08-07T08:03:08;15.60;99.90
15819;DHT22;8010;53.986;12.106;2023-08-07T08:05:34;15.60;99.90
15819;DHT22;8010;53.986;12.106;2023-08-07T08:08:00;15.60;99.90
15819;DHT22;8010;53.986;12.106;2023-08-07T08:10:27;15.70;99.90
15819;DHT22;8010;53.986;12.106;2023-08-07T08:12:54;15.70;99.90
15819;DHT22;8010;53.986;12.106;2023-08-07T08:15:20;15.70;99.90
15819;DHT22;8010;53.986;12.106;2023-08-07T08:17:46;15.70;99.90
15819;DHT22;8010;53.986;12.106;2023-08-07T08:20:12;15.80;99.90
15819;DHT22;8010;53.986;12.106;2023-08-07T08:22:41;15.80;99.90
15819;DHT22;8010;53.986;12.106;2023-08-07T08:25:06;15.80;99.90
15819;DHT22;8010;53.986;12.106;2023-08-07T08:27:32;15.80;99.90
15819;DHT22;8010;53.986;12.106;2023-08-07T08:29:58;15.90;99.90
15819;DHT22;8010;53.986;12.106;2023-08-07T08:32:23;15.90;99.90
15819;DHT22;8010;53.986;12.106;2023-08-07T08:34:49;15.90;99.90
15819;DHT22;8010;53.986;12.106;2023-08-07T08:37:15;15.90;99.90
15819;DHT22;8010;53.986;12.106;2023-08-07T08:39:41;16.00;99.90
15819;DHT22;8010;53.986;12.106;2023-08-07T08:42:09;16.00;99.90
15819;DHT22;8010;53.986;12.106;2023-08-07T08:44:36;16.00;99.90
15819;DHT22;8010;53.986;12.106;2023-08-07T08:47:03;16.00;99.90
15819;DHT22;8010;53.986;12.106;2023-08-07T08:49:33;16.00;99.90
15819;DHT22;8010;53.986;12.106;2023-08-07T08:52:00;16.00;99.90
15819;DHT22;8010;53.986;12.106;2023-08-07T08:54:26;16.10;99.90
15819;DHT22;8010;53.986;12.106;2023-08-07T08:56:52;16.10;99.90
15819;DHT22;8010;53.986;12.106;2023-08-07T08:59:20;16.10;99.90
15819;DHT22;8010;53.986;12.106;2023-08-07T09:01:48;16.10;99.90
15819;DHT22;8010;53.986;12.106;2023-08-07T09:04:16;16.10;99.90
15819;DHT22;8010;53.986;12.106;2023-08-07T09:06:43;16.10;99.90
15819;DHT22;8010;53.986;12.106;2023-08-07T09:09:09;16.10;99.90
15819;DHT22;8010;53.986;12.106;2023-08-07T09:11:36;16.20;99.90
15819;DHT22;8010;53.986;12.106;2023-08-07T09:14:02;16.10;99.90
15819;DHT22;8010;53.986;12.106;2023-08-07T09:16:29;16.20;99.90
15819;DHT22;8010;53.986;12.106;2023-08-07T09:18:55;16.20;99.90
15819;DHT22;8010;53.986;12.106;2023-08-07T09:21:21;16.20;99.90
15819;DHT22;8010;53.986;12.106;2023-08-07T09:23:47;16.20;99.90
15819;DHT22;8010;53.986;12.106;2023-08-07T09:26:12;16.20;99.90
15819;DHT22;8010;53.986;12.106;2023-08-07T09:28:38;16.30;99.90
15819;DHT22;8010;53.986;12.106;2023-08-07T09:31:06;16.30;99.90
15819;DHT22;8010;53.986;12.106;2023-08-07T09:33:32;16.40;99.90
15819;DHT22;8010;53.986;12.106;2023-08-07T09:36:01;16.40;99.90
15819;DHT22;8010;53.986;12.106;2023-08-07T09:38:31;16.50;99.90
15819;DHT22;8010;53.986;12.106;2023-08-07T09:41:03;16.50;99.90
15819;DHT22;8010;53.986;12.106;2023-08-07T09:43:33;16.50;99.90
15819;DHT22;8010;53.986;12.106;2023-08-07T09:46:06;16.60;99.90
15819;DHT22;8010;53.986;12.106;2023-08-07T09:48:39;16.60;99.90
15819;DHT22;8010;53.986;12.106;2023-08-07T09:51:05;16.60;99.90
15819;DHT22;8010;53.986;12.106;2023-08-07T09:53:30;16.60;99.90
15819;DHT22;8010;53.986;12.106;2023-08-07T09:55:57;16.60;99.90
15819;DHT22;8010;53.986;12.106;2023-08-07T09:58:23;16.60;99.90
15819;DHT22;8010;53.986;12.106;2023-08-07T10:00:50;16.60;99.90
15819;DHT22;8010;53.986;12.106;2023-08-07T10:03:16;16.70;99.90
15819;DHT22;8010;53.986;12.106;2023-08-07T10:05:43;17.50;99.90
15819;DHT22;8010;53.986;12.106;2023-08-07T10:08:10;16.80;99.90
15819;DHT22;8010;53.986;12.106;2023-08-07T10:10:37;16.90;99.90
15819;DHT22;8010;53.986;12.106;2023-08-07T10:13:03;16.90;99.90
15819;DHT22;8010;53.986;12.106;2023-08-07T10:15:30;16.90;99.90
15819;DHT22;8010;53.986;12.106;2023-08-07T10:17:56;17.70;99.90
15819;DHT22;8010;53.986;12.106;2023-08-07T10:20:22;16.90;99.90
15819;DHT22;8010;53.986;12.106;2023-08-07T10:22:50;17.00;99.90
15819;DHT22;8010;53.986;12.106;2023-08-07T10:25:20;17.10;99.90
15819;DHT22;8010;53.986;12.106;2023-08-07T10:27:48;17.20;99.90
15819;DHT22;8010;53.986;12.106;2023-08-07T10:30:18;17.30;99.90
15819;DHT22;8010;53.986;12.106;2023-08-07T10:32:44;17.30;99.90
15819;DHT22;8010;53.986;12.106;2023-08-07T10:38:14;17.40;99.90
15819;DHT22;8010;53.986;12.106;2023-08-07T10:41:02;17.50;99.90
15819;DHT22;8010;53.986;12.106;2023-08-07T10:43:28;17.60;99.90
15819;DHT22;8010;53.986;12.106;2023-08-07T10:46:08;17.60;99.90
15819;DHT22;8010;53.986;12.106;2023-08-07T10:48:44;17.60;99.90
15819;DHT22;8010;53.986;12.106;2023-08-07T10:51:13;17.60;99.90
15819;DHT22;8010;53.986;12.106;2023-08-07T10:53:42;17.50;99.90
15819;DHT22;8010;53.986;12.106;2023-08-07T10:56:11;18.60;99.90
15819;DHT22;8010;53.986;12.106;2023-08-07T10:58:42;17.50;99.90
15819;DHT22;8010;53.986;12.106;2023-08-07T11:06:28;17.70;99.90
15819;DHT22;8010;53.986;12.106;2023-08-07T11:08:57;17.90;99.90
15819;DHT22;8010;53.986;12.106;2023-08-07T11:11:23;18.20;99.90
15819;DHT22;8010;53.986;12.106;2023-08-07T11:13:49;18.50;99.90
15819;DHT22;8010;53.986;12.106;2023-08-07T11:16:15;18.90;99.90
15819;DHT22;8010;53.986;12.106;2023-08-07T11:18:42;19.20;99.90
15819;DHT22;8010;53.986;12.106;2023-08-07T11:21:08;19.40;99.90
15819;DHT22;8010;53.986;12.106;2023-08-07T11:23:36;19.50;99.90
15819;DHT22;8010;53.986;12.106;2023-08-07T11:26:01;19.70;99.90
15819;DHT22;8010;53.986;12.106;2023-08-07T11:28:28;19.80;99.90
15819;DHT22;8010;53.986;12.106;2023-08-07T11:30:54;20.00;99.90
15819;DHT22;8010;53.986;12.106;2023-08-07T11:33:22;20.10;99.90
15819;DHT22;8010;53.986;12.106;2023-08-07T11:35:49;20.00;99.90
15819;DHT22;8010;53.986;12.106;2023-08-07T11:38:36;20.20;99.90
15819;DHT22;8010;53.986;12.106;2023-08-07T11:41:04;20.30;99.90
15819;DHT22;8010;53.986;12.106;2023-08-07T11:43:32;20.40;99.90
15819;DHT22;8010;53.986;12.106;2023-08-07T11:45:59;20.60;99.90
15819;DHT22;8010;53.986;12.106;2023-08-07T11:48:30;20.40;99.90
15819;DHT22;8010;53.986;12.106;2023-08-07T11:50:57;20.50;99.90
15819;DHT22;8010;53.986;12.106;2023-08-07T11:53:28;20.00;99.90
15819;DHT22;8010;53.986;12.106;2023-08-07T11:56:00;19.80;99.90
15819;DHT22;8010;53.986;12.106;2023-08-07T11:58:31;19.60;99.90
15819;DHT22;8010;53.986;12.106;2023-08-07T12:00:58;19.70;99.90
15819;DHT22;8010;53.986;12.106;2023-08-07T12:03:35;20.00;99.90
15819;DHT22;8010;53.986;12.106;2023-08-07T12:06:05;20.00;99.90
15819;DHT22;8010;53.986;12.106;2023-08-07T12:08:38;19.70;99.90
15819;DHT22;8010;53.986;12.106;2023-08-07T12:11:06;19.90;99.90
15819;DHT22;8010;53.986;12.106;2023-08-07T12:13:32;19.90;99.90
15819;DHT22;8010;53.986;12.106;2023-08-07T12:16:01;20.00;99.90
15819;DHT22;8010;53.986;12.106;2023-08-07T12:18:31;19.90;99.90
15819;DHT22;8010;53.986;12.106;2023-08-07T12:21:02;19.80;99.90
15819;DHT22;8010;53.986;12.106;2023-08-07T12:23:28;19.60;99.90
15819;DHT22;8010;53.986;12.106;2023-08-07T12:25:54;19.40;99.90
15819;DHT22;8010;53.986;12.106;2023-08-07T12:28:20;19.30;99.90
15819;DHT22;8010;53.986;12.106;2023-08-07T12:30:46;19.30;99.90
15819;DHT22;8010;53.986;12.106;2023-08-07T12:33:12;19.40;99.90
15819;DHT22;8010;53.986;12.106;2023-08-07T12:35:38;19.40;99.90
15819;DHT22;8010;53.986;12.106;2023-08-07T12:38:04;19.80;99.90
15819;DHT22;8010;53.986;12.106;2023-08-07T12:40:31;20.10;99.90
15819;DHT22;8010;53.986;12.106;2023-08-07T12:42:58;20.10;99.90
15819;DHT22;8010;53.986;12.106;2023-08-07T12:45:23;20.50;99.90
15819;DHT22;8010;53.986;12.106;2023-08-07T12:47:49;19.90;99.90
15819;DHT22;8010;53.986;12.106;2023-08-07T12:50:14;19.70;99.90
15819;DHT22;8010;53.986;12.106;2023-08-07T12:52:40;19.50;99.90
15819;DHT22;8010;53.986;12.106;2023-08-07T12:55:06;19.40;99.90
15819;DHT22;8010;53.986;12.106;2023-08-07T12:57:32;19.40;99.90
15819;DHT22;8010;53.986;12.106;2023-08-07T12:59:58;19.20;99.90
15819;DHT22;8010;53.986;12.106;2023-08-07T13:02:23;19.30;99.90
15819;DHT22;8010;53.986;12.106;2023-08-07T13:04:49;19.70;99.90
15819;DHT22;8010;53.986;12.106;2023-08-07T13:07:14;20.10;99.90
15819;DHT22;8010;53.986;12.106;2023-08-07T13:09:40;19.70;99.90
15819;DHT22;8010;53.986;12.106;2023-08-07T13:12:06;19.40;99.90
15819;DHT22;8010;53.986;12.106;2023-08-07T13:14:31;19.50;99.90
15819;DHT22;8010;53.986;12.106;2023-08-07T13:16:57;19.80;99.90
15819;DHT22;8010;53.986;12.106;2023-08-07T13:19:22;19.90;99.90
15819;DHT22;8010;53.986;12.106;2023-08-07T13:21:48;19.90;99.90
15819;DHT22;8010;53.986;12.106;2023-08-07T13:24:14;20.70;99.90
15819;DHT22;8010;53.986;12.106;2023-08-07T13:26:39;20.20;99.90
15819;DHT22;8010;53.986;12.106;2023-08-07T13:29:10;20.20;99.90
15819;DHT22;8010;53.986;12.106;2023-08-07T13:31:36;20.20;99.90
15819;DHT22;8010;53.986;12.106;2023-08-07T13:34:02;20.30;99.90
15819;DHT22;8010;53.986;12.106;2023-08-07T13:36:33;20.40;99.90
15819;DHT22;8010;53.986;12.106;2023-08-07T13:38:58;20.60;99.90
15819;DHT22;8010;53.986;12.106;2023-08-07T13:41:26;20.80;99.90
15819;DHT22;8010;53.986;12.106;2023-08-07T13:43:51;20.70;99.90
15819;DHT22;8010;53.986;12.106;2023-08-07T13:46:17;20.70;99.90
15819;DHT22;8010;53.986;12.106;2023-08-07T13:48:44;20.80;99.90
15819;DHT22;8010;53.986;12.106;2023-08-07T13:51:10;20.90;99.90
15819;DHT22;8010;53.986;12.106;2023-08-07T13:53:35;20.70;99.90
15819;DHT22;8010;53.986;12.106;2023-08-07T13:56:01;20.40;99.90
15819;DHT22;8010;53.986;12.106;2023-08-07T13:58:27;20.30;99.90
15819;DHT22;8010;53.986;12.106;2023-08-07T14:00:53;20.60;99.90
15819;DHT22;8010;53.986;12.106;2023-08-07T14:03:18;20.60;99.90
15819;DHT22;8010;53.986;12.106;2023-08-07T14:05:44;20.70;99.90
15819;DHT22;8010;53.986;12.106;2023-08-07T14:08:10;20.70;99.90
15819;DHT22;8010;53.986;12.106;2023-08-07T14:10:36;20.90;99.90
15819;DHT22;8010;53.986;12.106;2023-08-07T14:13:04;21.50;99.90
15819;DHT22;8010;53.986;12.106;2023-08-07T14:15:30;21.00;99.90
15819;DHT22;8010;53.986;12.106;2023-08-07T14:17:55;20.70;99.90
15819;DHT22;8010;53.986;12.106;2023-08-07T14:20:22;20.70;99.90
15819;DHT22;8010;53.986;12.106;2023-08-07T14:22:48;20.90;99.90
15819;DHT22;8010;53.986;12.106;2023-08-07T14:25:13;21.10;99.90
15819;DHT22;8010;53.986;12.106;2023-08-07T14:27:39;20.90;99.90
15819;DHT22;8010;53.986;12.106;2023-08-07T14:30:05;22.40;99.90
15819;DHT22;8010;53.986;12.106;2023-08-07T14:32:31;20.30;99.90
15819;DHT22;8010;53.986;12.106;2023-08-07T14:34:56;20.30;99.90
15819;DHT22;8010;53.986;12.106;2023-08-07T14:37:22;20.30;99.90
15819;DHT22;8010;53.986;12.106;2023-08-07T14:39:47;20.10;99.90
15819;DHT22;8010;53.986;12.106;2023-08-07T14:42:13;20.00;99.90
15819;DHT22;8010;53.986;12.106;2023-08-07T14:44:38;19.90;99.90
15819;DHT22;8010;53.986;12.106;2023-08-07T14:47:04;19.70;99.90
15819;DHT22;8010;53.986;12.106;2023-08-07T14:49:29;19.80;99.90
15819;DHT22;8010;53.986;12.106;2023-08-07T14:51:55;19.90;99.90
15819;DHT22;8010;53.986;12.106;2023-08-07T14:54:20;19.70;99.90
15819;DHT22;8010;53.986;12.106;2023-08-07T14:56:46;19.60;99.90
15819;DHT22;8010;53.986;12.106;2023-08-07T14:59:11;19.40;99.90
15819;DHT22;8010;53.986;12.106;2023-08-07T15:01:37;19.50;99.90
15819;DHT22;8010;53.986;12.106;2023-08-07T15:04:03;19.60;99.90
15819;DHT22;8010;53.986;12.106;2023-08-07T15:06:28;19.70;99.90
15819;DHT22;8010;53.986;12.106;2023-08-07T15:08:54;20.10;99.90
15819;DHT22;8010;53.986;12.106;2023-08-07T15:11:19;19.80;99.90
15819;DHT22;8010;53.986;12.106;2023-08-07T15:13:45;19.40;99.90
15819;DHT22;8010;53.986;12.106;2023-08-07T15:16:10;19.20;99.90
15819;DHT22;8010;53.986;12.106;2023-08-07T15:18:36;18.90;99.90
15819;DHT22;8010;53.986;12.106;2023-08-07T15:21:04;18.90;99.90
15819;DHT22;8010;53.986;12.106;2023-08-07T15:23:30;18.80;99.90
15819;DHT22;8010;53.986;12.106;2023-08-07T15:25:55;18.60;99.90
15819;DHT22;8010;53.986;12.106;2023-08-07T15:28:21;19.60;99.90
15819;DHT22;8010;53.986;12.106;2023-08-07T15:30:50;18.90;99.90
15819;DHT22;8010;53.986;12.106;2023-08-07T15:33:16;19.00;99.90
15819;DHT22;8010;53.986;12.106;2023-08-07T15:35:43;18.90;99.90